sensor_id;sensor_type;location;lat;lon;timestamp;pressure;altitude;pressure_sealevel;temperature;humidity
44457;BME280;30159;49.316;8.558;2022-11-14T00:02:03;100500.31;;;7.70;100.00
44457;BME280;30159;49.316;8.558;2022-11-14T00:04:29;100502.81;;;7.81;100.00
44457;BME280;30159;49.316;8.558;2022-11-14T00:06:56;100464.72;;;7.47;100.00
44457;BME280;30159;49.316;8.558;2022-11-14T00:09:23;100498.78;;;7.79;100.00
44457;BME280;30159;49.316;8.558;2022-11-14T00:11:52;100492.31;;;7.80;100.00
44457;BME280;30159;49.316;8.558;2022-11-14T00:14:18;100474.09;;;7.82;100.00
44457;BME280;30159;49.316;8.558;2022-11-14T00:16:45;100488.28;;;7.77;100.00
44457;BME280;30159;49.316;8.558;2022-11-14T00:19:12;100481.78;;;7.68;100.00
44457;BME280;30159;49.316;8.558;2022-11-14T00:21:39;100495.78;;;7.75;100.00
44457;BME280;30159;49.316;8.558;2022-11-14T00:24:05;100493.63;;;7.72;100.00
44457;BME280;30159;49.316;8.558;2022-11-14T00:26:32;100488.53;;;7.38;100.00
44457;BME280;30159;49.316;8.558;2022-11-14T00:29:00;100492.69;;;7.24;100.00
44457;BME280;30159;49.316;8.558;2022-11-14T00:31:26;100493.94;;;7.11;100.00
44457;BME280;30159;49.316;8.558;2022-11-14T00:33:53;100504.88;;;7.05;100.00
44457;BME280;30159;49.316;8.558;2022-11-14T00:36:20;100456.63;;;6.56;100.00
44457;BME280;30159;49.316;8.558;2022-11-14T00:38:46;100487.38;;;6.75;100.00
44457;BME280;30159;49.316;8.558;2022-11-14T00:41:13;100495.47;;;6.80;100.00
44457;BME280;30159;49.316;8.558;2022-11-14T00:43:39;100492.00;;;6.80;100.00
44457;BME280;30159;49.316;8.558;2022-11-14T00:46:07;100500.59;;;6.82;100.00
44457;BME280;30159;49.316;8.558;2022-11-14T00:48:34;100499.78;;;6.81;100.00
44457;BME280;30159;49.316;8.558;2022-11-14T00:51:00;100494.00;;;6.94;100.00
44457;BME280;30159;49.316;8.558;2022-11-14T00:53:27;100493.81;;;7.01;100.00
44457;BME280;30159;49.316;8.558;2022-11-14T00:55:53;100490.88;;;7.03;100.00
44457;BME280;30159;49.316;8.558;2022-11-14T00:58:20;100492.28;;;7.10;100.00
44457;BME280;30159;49.316;8.558;2022-11-14T01:00:46;100484.53;;;7.09;100.00
44457;BME280;30159;49.316;8.558;2022-11-14T01:03:14;100483.19;;;7.11;100.00
44457;BME280;30159;49.316;8.558;2022-11-14T01:05:41;100482.13;;;7.12;100.00
44457;BME280;30159;49.316;8.558;2022-11-14T01:08:08;100475.97;;;7.12;100.00
44457;BME280;30159;49.316;8.558;2022-11-14T01:10:38;100485.63;;;7.13;100.00
44457;BME280;30159;49.316;8.558;2022-11-14T01:13:04;100480.84;;;7.20;100.00
44457;BME280;30159;49.316;8.558;2022-11-14T01:15:31;100480.19;;;7.35;100.00
44457;BME280;30159;49.316;8.558;2022-11-14T01:17:57;100476.19;;;7.37;100.00
44457;BME280;30159;49.316;8.558;2022-11-14T01:20:25;100469.50;;;7.40;100.00
44457;BME280;30159;49.316;8.558;2022-11-14T01:22:52;100459.09;;;7.49;100.00
44457;BME280;30159;49.316;8.558;2022-11-14T01:25:18;100454.28;;;7.51;100.00
44457;BME280;30159;49.316;8.558;2022-11-14T01:27:45;100450.00;;;7.55;100.00
44457;BME280;30159;49.316;8.558;2022-11-14T01:30:12;100207.38;;;6.13;100.00
44457;BME280;30159;49.316;8.558;2022-11-14T01:32:39;100418.53;;;7.45;100.00
44457;BME280;30159;49.316;8.558;2022-11-14T01:35:06;100445.00;;;7.69;100.00
44457;BME280;30159;49.316;8.558;2022-11-14T01:37:34;100437.50;;;7.71;100.00
44457;BME280;30159;49.316;8.558;2022-11-14T01:40:00;100419.00;;;7.74;100.00
44457;BME280;30159;49.316;8.558;2022-11-14T01:42:27;100418.00;;;7.86;100.00
44457;BME280;30159;49.316;8.558;2022-11-14T01:44:53;100409.41;;;7.84;100.00
44457;BME280;30159;49.316;8.558;2022-11-14T01:47:23;100411.00;;;7.85;100.00
44457;BME280;30159;49.316;8.558;2022-11-14T01:49:53;100402.38;;;7.82;100.00
44457;BME280;30159;49.316;8.558;2022-11-14T01:52:23;100400.50;;;7.78;100.00
44457;BME280;30159;49.316;8.558;2022-11-14T01:54:53;100386.25;;;7.72;100.00
44457;BME280;30159;49.316;8.558;2022-11-14T01:57:22;100392.41;;;7.73;100.00
44457;BME280;30159;49.316;8.558;2022-11-14T01:59:53;100390.03;;;7.76;100.00
44457;BME280;30159;49.316;8.558;2022-11-14T02:02:22;100391.88;;;7.71;100.00
44457;BME280;30159;49.316;8.558;2022-11-14T02:04:51;100383.78;;;7.66;100.00
44457;BME280;30159;49.316;8.558;2022-11-14T02:07:19;100384.38;;;7.78;100.00
44457;BME280;30159;49.316;8.558;2022-11-14T02:09:47;100384.69;;;7.81;100.00
44457;BME280;30159;49.316;8.558;2022-11-14T02:12:16;100384.09;;;7.69;100.00
44457;BME280;30159;49.316;8.558;2022-11-14T02:14:46;100380.31;;;7.65;100.00
44457;BME280;30159;49.316;8.558;2022-11-14T02:17:14;100379.72;;;7.58;100.00
44457;BME280;30159;49.316;8.558;2022-11-14T02:19:43;100363.03;;;7.51;100.00
44457;BME280;30159;49.316;8.558;2022-11-14T02:22:12;100364.91;;;7.50;100.00
44457;BME280;30159;49.316;8.558;2022-11-14T02:24:38;100369.44;;;7.45;100.00
44457;BME280;30159;49.316;8.558;2022-11-14T02:27:05;100348.88;;;7.18;100.00
44457;BME280;30159;49.316;8.558;2022-11-14T02:29:33;100367.22;;;7.36;100.00
44457;BME280;30159;49.316;8.558;2022-11-14T02:32:00;100350.38;;;7.04;100.00
44457;BME280;30159;49.316;8.558;2022-11-14T02:34:27;100372.78;;;7.25;100.00
44457;BME280;30159;49.316;8.558;2022-11-14T02:36:54;100368.16;;;7.15;100.00
44457;BME280;30159;49.316;8.558;2022-11-14T02:39:22;100358.19;;;7.10;100.00
44457;BME280;30159;49.316;8.558;2022-11-14T02:41:49;100315.03;;;6.74;100.00
44457;BME280;30159;49.316;8.558;2022-11-14T02:44:16;100376.38;;;7.03;100.00
44457;BME280;30159;49.316;8.558;2022-11-14T02:46:43;100354.16;;;7.08;100.00
44457;BME280;30159;49.316;8.558;2022-11-14T02:49:10;100365.50;;;7.20;100.00
44457;BME280;30159;49.316;8.558;2022-11-14T02:51:37;100369.84;;;7.26;100.00
44457;BME280;30159;49.316;8.558;2022-11-14T02:54:03;100355.09;;;7.29;100.00
44457;BME280;30159;49.316;8.558;2022-11-14T02:56:31;100338.19;;;7.23;100.00
44457;BME280;30159;49.316;8.558;2022-11-14T02:58:57;100348.94;;;7.28;100.00
44457;BME280;30159;49.316;8.558;2022-11-14T03:01:24;100350.31;;;7.31;100.00
44457;BME280;30159;49.316;8.558;2022-11-14T03:03:50;100354.59;;;7.32;100.00
44457;BME280;30159;49.316;8.558;2022-11-14T03:06:17;100348.94;;;7.28;100.00
44457;BME280;30159;49.316;8.558;2022-11-14T03:08:44;100348.38;;;7.26;100.00
44457;BME280;30159;49.316;8.558;2022-11-14T03:11:10;100342.22;;;7.26;100.00
44457;BME280;30159;49.316;8.558;2022-11-14T03:13:38;100339.81;;;7.29;100.00
44457;BME280;30159;49.316;8.558;2022-11-14T03:16:05;100338.75;;;7.25;100.00
44457;BME280;30159;49.316;8.558;2022-11-14T03:18:32;100350.53;;;7.24;100.00
44457;BME280;30159;49.316;8.558;2022-11-14T03:21:04;100345.84;;;7.04;100.00
44457;BME280;30159;49.316;8.558;2022-11-14T03:23:30;100352.53;;;7.02;100.00
44457;BME280;30159;49.316;8.558;2022-11-14T03:25:58;100348.94;;;6.91;100.00
44457;BME280;30159;49.316;8.558;2022-11-14T03:28:25;100348.56;;;6.77;100.00
44457;BME280;30159;49.316;8.558;2022-11-14T03:30:52;100349.16;;;6.84;100.00
44457;BME280;30159;49.316;8.558;2022-11-14T03:33:19;100349.97;;;6.85;100.00
44457;BME280;30159;49.316;8.558;2022-11-14T03:35:48;100273.22;;;6.41;100.00
44457;BME280;30159;49.316;8.558;2022-11-14T03:38:14;100337.13;;;6.92;100.00
44457;BME280;30159;49.316;8.558;2022-11-14T03:40:41;100341.47;;;6.93;100.00
44457;BME280;30159;49.316;8.558;2022-11-14T03:43:07;100325.53;;;6.49;100.00
44457;BME280;30159;49.316;8.558;2022-11-14T03:45:35;100332.25;;;6.51;100.00
44457;BME280;30159;49.316;8.558;2022-11-14T03:48:04;100289.22;;;6.36;100.00
44457;BME280;30159;49.316;8.558;2022-11-14T03:50:31;100330.16;;;6.59;100.00
44457;BME280;30159;49.316;8.558;2022-11-14T03:52:58;100323.59;;;6.71;100.00
44457;BME280;30159;49.316;8.558;2022-11-14T03:55:24;100342.81;;;6.63;100.00
44457;BME280;30159;49.316;8.558;2022-11-14T03:57:51;100316.22;;;6.57;100.00
44457;BME280;30159;49.316;8.558;2022-11-14T04:00:18;100325.06;;;6.57;100.00
44457;BME280;30159;49.316;8.558;2022-11-14T04:02:44;100326.13;;;6.56;100.00
44457;BME280;30159;49.316;8.558;2022-11-14T04:05:13;100324.09;;;6.68;100.00
44457;BME280;30159;49.316;8.558;2022-11-14T04:07:39;100328.72;;;6.78;100.00
44457;BME280;30159;49.316;8.558;2022-11-14T04:10:07;100319.38;;;6.81;100.00
44457;BME280;30159;49.316;8.558;2022-11-14T04:12:33;100322.56;;;6.78;100.00
44457;BME280;30159;49.316;8.558;2022-11-14T04:15:00;100328.22;;;6.81;100.00
44457;BME280;30159;49.316;8.558;2022-11-14T04:17:26;100325.63;;;6.91;100.00
44457;BME280;30159;49.316;8.558;2022-11-14T04:19:53;100330.97;;;6.91;100.00
44457;BME280;30159;49.316;8.558;2022-11-14T04:22:21;100309.50;;;6.86;100.00
44457;BME280;30159;49.316;8.558;2022-11-14T04:24:47;100309.84;;;6.95;100.00
44457;BME280;30159;49.316;8.558;2022-11-14T04:27:14;100299.88;;;6.90;100.00
44457;BME280;30159;49.316;8.558;2022-11-14T04:29:40;100295.28;;;6.86;100.00
44457;BME280;30159;49.316;8.558;2022-11-14T04:32:07;100295.59;;;6.94;100.00
44457;BME280;30159;49.316;8.558;2022-11-14T04:34:33;100303.38;;;6.91;100.00
44457;BME280;30159;49.316;8.558;2022-11-14T04:37:00;100310.03;;;6.83;100.00
44457;BME280;30159;49.316;8.558;2022-11-14T04:39:28;100310.03;;;6.83;100.00
44457;BME280;30159;49.316;8.558;2022-11-14T04:41:54;100296.41;;;6.58;100.00
44457;BME280;30159;49.316;8.558;2022-11-14T04:44:21;100299.50;;;6.44;100.00
44457;BME280;30159;49.316;8.558;2022-11-14T04:46:47;100312.81;;;6.34;100.00
44457;BME280;30159;49.316;8.558;2022-11-14T04:49:14;100301.28;;;6.06;100.00
44457;BME280;30159;49.316;8.558;2022-11-14T04:51:40;100251.56;;;5.66;100.00
44457;BME280;30159;49.316;8.558;2022-11-14T04:54:07;100308.94;;;5.98;100.00
44457;BME280;30159;49.316;8.558;2022-11-14T04:56:35;100314.59;;;6.01;100.00
44457;BME280;30159;49.316;8.558;2022-11-14T04:59:01;100256.47;;;5.75;100.00
44457;BME280;30159;49.316;8.558;2022-11-14T05:01:28;100262.88;;;5.74;100.00
44457;BME280;30159;49.316;8.558;2022-11-14T05:03:55;100315.41;;;6.02;100.00
44457;BME280;30159;49.316;8.558;2022-11-14T05:06:21;100310.34;;;6.05;100.00
44457;BME280;30159;49.316;8.558;2022-11-14T05:08:48;100282.91;;;5.71;100.00
44457;BME280;30159;49.316;8.558;2022-11-14T05:11:15;100320.16;;;5.95;100.00
44457;BME280;30159;49.316;8.558;2022-11-14T05:13:43;100316.56;;;5.89;100.00
44457;BME280;30159;49.316;8.558;2022-11-14T05:16:10;100328.28;;;5.83;100.00
44457;BME280;30159;49.316;8.558;2022-11-14T05:18:38;100319.31;;;5.94;100.00
44457;BME280;30159;49.316;8.558;2022-11-14T05:21:05;100312.72;;;5.80;100.00
44457;BME280;30159;49.316;8.558;2022-11-14T05:23:31;100321.34;;;5.87;100.00
44457;BME280;30159;49.316;8.558;2022-11-14T05:25:59;100323.84;;;5.94;100.00
44457;BME280;30159;49.316;8.558;2022-11-14T05:28:26;100309.34;;;5.89;100.00
44457;BME280;30159;49.316;8.558;2022-11-14T05:30:59;100309.09;;;5.91;100.00
44457;BME280;30159;49.316;8.558;2022-11-14T05:33:26;100309.22;;;6.01;100.00
44457;BME280;30159;49.316;8.558;2022-11-14T05:35:52;100310.25;;;5.95;100.00
44457;BME280;30159;49.316;8.558;2022-11-14T05:38:19;100306.63;;;6.06;100.00
44457;BME280;30159;49.316;8.558;2022-11-14T05:40:45;100301.63;;;5.93;100.00
44457;BME280;30159;49.316;8.558;2022-11-14T05:43:12;100304.38;;;5.98;100.00
44457;BME280;30159;49.316;8.558;2022-11-14T05:45:38;100301.75;;;6.03;100.00
44457;BME280;30159;49.316;8.558;2022-11-14T05:48:06;100299.34;;;6.02;100.00
44457;BME280;30159;49.316;8.558;2022-11-14T05:50:33;100297.28;;;5.87;100.00
44457;BME280;30159;49.316;8.558;2022-11-14T05:52:59;100298.91;;;5.88;100.00
44457;BME280;30159;49.316;8.558;2022-11-14T05:55:26;100292.56;;;5.94;100.00
44457;BME280;30159;49.316;8.558;2022-11-14T05:57:52;100273.91;;;5.99;100.00
44457;BME280;30159;49.316;8.558;2022-11-14T06:00:19;100275.56;;;5.83;100.00
44457;BME280;30159;49.316;8.558;2022-11-14T06:02:45;100262.97;;;5.84;100.00
44457;BME280;30159;49.316;8.558;2022-11-14T06:05:13;100260.88;;;5.86;100.00
44457;BME280;30159;49.316;8.558;2022-11-14T06:07:40;100261.44;;;5.88;100.00
44457;BME280;30159;49.316;8.558;2022-11-14T06:10:07;100262.56;;;5.92;100.00
44457;BME280;30159;49.316;8.558;2022-11-14T06:12:33;100269.50;;;5.93;100.00
44457;BME280;30159;49.316;8.558;2022-11-14T06:15:00;100275.31;;;6.07;100.00
44457;BME280;30159;49.316;8.558;2022-11-14T06:17:26;100191.97;;;5.49;100.00
44457;BME280;30159;49.316;8.558;2022-11-14T06:19:53;100262.78;;;5.90;100.00
44457;BME280;30159;49.316;8.558;2022-11-14T06:22:21;100247.16;;;6.04;100.00
44457;BME280;30159;49.316;8.558;2022-11-14T06:24:48;100257.13;;;6.09;100.00
44457;BME280;30159;49.316;8.558;2022-11-14T06:27:14;100253.69;;;6.14;100.00
44457;BME280;30159;49.316;8.558;2022-11-14T06:29:41;100245.19;;;6.22;100.00
44457;BME280;30159;49.316;8.558;2022-11-14T06:32:07;100249.50;;;6.23;100.00
44457;BME280;30159;49.316;8.558;2022-11-14T06:34:34;100258.09;;;6.25;100.00
44457;BME280;30159;49.316;8.558;2022-11-14T06:37:00;100244.72;;;6.30;100.00
44457;BME280;30159;49.316;8.558;2022-11-14T06:39:28;100229.06;;;6.17;100.00
44457;BME280;30159;49.316;8.558;2022-11-14T06:41:55;100241.75;;;6.26;100.00
44457;BME280;30159;49.316;8.558;2022-11-14T06:44:22;100244.22;;;6.33;100.00
44457;BME280;30159;49.316;8.558;2022-11-14T06:46:49;100240.44;;;6.29;100.00
44457;BME280;30159;49.316;8.558;2022-11-14T06:49:15;100235.06;;;6.29;100.00
44457;BME280;30159;49.316;8.558;2022-11-14T06:51:42;100239.94;;;6.32;100.00
44457;BME280;30159;49.316;8.558;2022-11-14T06:54:10;100239.63;;;6.28;100.00
44457;BME280;30159;49.316;8.558;2022-11-14T06:56:40;100244.59;;;6.15;100.00
44457;BME280;30159;49.316;8.558;2022-11-14T06:59:06;100246.00;;;5.95;100.00
44457;BME280;30159;49.316;8.558;2022-11-14T07:01:33;100242.75;;;5.93;100.00
44457;BME280;30159;49.316;8.558;2022-11-14T07:04:00;100236.00;;;6.12;100.00
44457;BME280;30159;49.316;8.558;2022-11-14T07:06:28;100188.38;;;5.87;100.00
44457;BME280;30159;49.316;8.558;2022-11-14T07:08:56;100247.69;;;6.33;100.00
44457;BME280;30159;49.316;8.558;2022-11-14T07:11:26;100258.25;;;6.45;100.00
44457;BME280;30159;49.316;8.558;2022-11-14T07:13:56;100251.09;;;6.56;100.00
44457;BME280;30159;49.316;8.558;2022-11-14T07:16:25;100253.97;;;6.44;100.00
44457;BME280;30159;49.316;8.558;2022-11-14T07:18:54;100252.84;;;6.40;100.00
44457;BME280;30159;49.316;8.558;2022-11-14T07:21:21;100255.50;;;6.35;100.00
44457;BME280;30159;49.316;8.558;2022-11-14T07:23:47;100241.25;;;6.02;100.00
44457;BME280;30159;49.316;8.558;2022-11-14T07:26:14;100242.44;;;5.89;100.00
44457;BME280;30159;49.316;8.558;2022-11-14T07:28:42;100249.25;;;5.97;100.00
44457;BME280;30159;49.316;8.558;2022-11-14T07:31:12;100256.19;;;5.98;100.00
44457;BME280;30159;49.316;8.558;2022-11-14T07:33:40;100125.56;;;5.19;100.00
44457;BME280;30159;49.316;8.558;2022-11-14T07:36:07;100228.88;;;5.96;100.00
44457;BME280;30159;49.316;8.558;2022-11-14T07:38:35;100256.66;;;6.17;100.00
44457;BME280;30159;49.316;8.558;2022-11-14T07:41:04;100258.53;;;6.17;100.00
44457;BME280;30159;49.316;8.558;2022-11-14T07:43:31;100259.13;;;6.24;100.00
44457;BME280;30159;49.316;8.558;2022-11-14T07:45:58;100181.13;;;5.88;100.00
44457;BME280;30159;49.316;8.558;2022-11-14T07:48:26;100244.19;;;6.28;100.00
44457;BME280;30159;49.316;8.558;2022-11-14T07:50:57;100259.84;;;6.41;100.00
44457;BME280;30159;49.316;8.558;2022-11-14T07:53:23;100242.13;;;6.40;100.00
44457;BME280;30159;49.316;8.558;2022-11-14T07:55:50;100256.47;;;6.56;100.00
44457;BME280;30159;49.316;8.558;2022-11-14T07:58:16;100272.69;;;6.71;100.00
44457;BME280;30159;49.316;8.558;2022-11-14T08:00:43;100265.47;;;6.77;100.00
44457;BME280;30159;49.316;8.558;2022-11-14T08:03:10;100253.59;;;6.68;100.00
44457;BME280;30159;49.316;8.558;2022-11-14T08:05:38;100260.09;;;6.77;100.00
44457;BME280;30159;49.316;8.558;2022-11-14T08:08:05;100234.69;;;6.85;100.00
44457;BME280;30159;49.316;8.558;2022-11-14T08:10:31;100246.22;;;7.28;100.00
44457;BME280;30159;49.316;8.558;2022-11-14T08:12:58;100246.50;;;7.36;100.00
44457;BME280;30159;49.316;8.558;2022-11-14T08:15:25;100230.22;;;7.58;100.00
44457;BME280;30159;49.316;8.558;2022-11-14T08:17:56;100224.06;;;7.58;100.00
44457;BME280;30159;49.316;8.558;2022-11-14T08:20:23;100235.91;;;7.72;100.00
44457;BME280;30159;49.316;8.558;2022-11-14T08:22:51;100224.06;;;7.58;100.00
44457;BME280;30159;49.316;8.558;2022-11-14T08:25:17;100231.56;;;7.61;100.00
44457;BME280;30159;49.316;8.558;2022-11-14T08:27:44;100240.31;;;7.36;100.00
44457;BME280;30159;49.316;8.558;2022-11-14T08:30:11;100224.69;;;7.17;100.00
44457;BME280;30159;49.316;8.558;2022-11-14T08:32:38;100228.44;;;7.16;100.00
44457;BME280;30159;49.316;8.558;2022-11-14T08:35:05;100245.41;;;7.27;100.00
44457;BME280;30159;49.316;8.558;2022-11-14T08:37:32;100240.09;;;7.43;100.00
44457;BME280;30159;49.316;8.558;2022-11-14T08:39:59;100232.03;;;7.43;100.00
44457;BME280;30159;49.316;8.558;2022-11-14T08:42:26;100238.50;;;7.47;100.00
44457;BME280;30159;49.316;8.558;2022-11-14T08:44:53;100249.00;;;7.58;100.00
44457;BME280;30159;49.316;8.558;2022-11-14T08:47:19;100228.81;;;7.46;100.00
44457;BME280;30159;49.316;8.558;2022-11-14T08:49:46;100228.34;;;7.59;100.00
44457;BME280;30159;49.316;8.558;2022-11-14T08:52:12;100234.28;;;7.71;100.00
44457;BME280;30159;49.316;8.558;2022-11-14T08:54:39;100222.50;;;7.88;100.00
44457;BME280;30159;49.316;8.558;2022-11-14T08:57:07;100215.06;;;8.20;100.00
44457;BME280;30159;49.316;8.558;2022-11-14T08:59:33;100219.09;;;8.54;100.00
44457;BME280;30159;49.316;8.558;2022-11-14T09:02:00;100212.34;;;8.72;100.00
44457;BME280;30159;49.316;8.558;2022-11-14T09:04:26;100215.31;;;8.75;100.00
44457;BME280;30159;49.316;8.558;2022-11-14T09:06:53;100208.59;;;8.68;100.00
44457;BME280;30159;49.316;8.558;2022-11-14T09:09:19;100217.16;;;8.95;100.00
44457;BME280;30159;49.316;8.558;2022-11-14T09:11:46;100223.59;;;9.04;100.00
44457;BME280;30159;49.316;8.558;2022-11-14T09:14:14;100224.13;;;9.01;100.00
44457;BME280;30159;49.316;8.558;2022-11-14T09:16:40;100162.91;;;8.62;100.00
44457;BME280;30159;49.316;8.558;2022-11-14T09:19:07;100218.72;;;9.06;100.00
44457;BME280;30159;49.316;8.558;2022-11-14T09:21:33;100221.66;;;9.20;100.00
44457;BME280;30159;49.316;8.558;2022-11-14T09:24:00;100221.41;;;9.17;100.00
44457;BME280;30159;49.316;8.558;2022-11-14T09:26:26;100228.94;;;9.15;100.00
44457;BME280;30159;49.316;8.558;2022-11-14T09:28:53;100228.59;;;9.32;100.00
44457;BME280;30159;49.316;8.558;2022-11-14T09:31:20;100230.75;;;9.29;100.00
44457;BME280;30159;49.316;8.558;2022-11-14T09:33:47;100217.66;;;9.07;100.00
44457;BME280;30159;49.316;8.558;2022-11-14T09:36:14;100245.56;;;9.27;100.00
44457;BME280;30159;49.316;8.558;2022-11-14T09:38:43;100239.94;;;9.28;100.00
44457;BME280;30159;49.316;8.558;2022-11-14T09:41:22;100232.09;;;9.32;100.00
44457;BME280;30159;49.316;8.558;2022-11-14T09:44:11;100221.00;;;9.49;100.00
44457;BME280;30159;49.316;8.558;2022-11-14T09:46:47;100228.63;;;9.81;100.00
44457;BME280;30159;49.316;8.558;2022-11-14T09:49:24;100238.75;;;10.00;100.00
44457;BME280;30159;49.316;8.558;2022-11-14T09:51:53;100230.16;;;10.03;100.00
44457;BME280;30159;49.316;8.558;2022-11-14T09:54:26;100230.19;;;9.92;100.00
44457;BME280;30159;49.316;8.558;2022-11-14T09:56:53;100227.19;;;9.99;100.00
44457;BME280;30159;49.316;8.558;2022-11-14T09:59:20;100225.78;;;10.12;100.00
44457;BME280;30159;49.316;8.558;2022-11-14T10:01:53;100218.94;;;10.25;100.00
44457;BME280;30159;49.316;8.558;2022-11-14T10:04:30;100222.09;;;10.37;100.00
44457;BME280;30159;49.316;8.558;2022-11-14T10:07:06;100220.38;;;10.46;98.82
44457;BME280;30159;49.316;8.558;2022-11-14T10:09:46;100215.63;;;10.67;97.21
44457;BME280;30159;49.316;8.558;2022-11-14T10:12:21;100218.47;;;10.52;98.71
44457;BME280;30159;49.316;8.558;2022-11-14T10:15:13;100212.78;;;10.83;98.59
44457;BME280;30159;49.316;8.558;2022-11-14T10:18:01;100200.75;;;10.99;96.30
44457;BME280;30159;49.316;8.558;2022-11-14T10:20:36;100196.25;;;11.37;96.55
44457;BME280;30159;49.316;8.558;2022-11-14T10:23:16;100204.94;;;11.53;93.87
44457;BME280;30159;49.316;8.558;2022-11-14T10:25:53;100203.94;;;11.68;94.45
44457;BME280;30159;49.316;8.558;2022-11-14T10:28:39;100198.03;;;11.85;92.28
44457;BME280;30159;49.316;8.558;2022-11-14T10:31:16;100204.63;;;11.98;92.59
44457;BME280;30159;49.316;8.558;2022-11-14T10:33:54;100186.56;;;11.93;91.13
44457;BME280;30159;49.316;8.558;2022-11-14T10:36:30;100188.78;;;11.91;92.30
44457;BME280;30159;49.316;8.558;2022-11-14T10:39:03;100183.31;;;11.96;91.75
44457;BME280;30159;49.316;8.558;2022-11-14T10:41:34;100193.72;;;11.84;92.53
44457;BME280;30159;49.316;8.558;2022-11-14T10:44:01;100189.06;;;11.90;92.14
44457;BME280;30159;49.316;8.558;2022-11-14T10:46:31;100027.50;;;10.97;91.95
44457;BME280;30159;49.316;8.558;2022-11-14T10:49:00;100132.97;;;11.63;92.98
44457;BME280;30159;49.316;8.558;2022-11-14T10:51:31;100175.56;;;11.90;91.62
44457;BME280;30159;49.316;8.558;2022-11-14T10:54:02;100174.16;;;11.92;91.88
44457;BME280;30159;49.316;8.558;2022-11-14T10:56:31;100160.19;;;11.85;91.62
44457;BME280;30159;49.316;8.558;2022-11-14T10:58:57;100169.19;;;11.99;92.26
44457;BME280;30159;49.316;8.558;2022-11-14T11:01:36;100157.97;;;11.92;92.40
44457;BME280;30159;49.316;8.558;2022-11-14T11:04:18;100162.38;;;11.83;93.76
44457;BME280;30159;49.316;8.558;2022-11-14T11:06:46;100150.25;;;11.80;91.47
44457;BME280;30159;49.316;8.558;2022-11-14T11:09:14;100153.69;;;11.86;92.32
44457;BME280;30159;49.316;8.558;2022-11-14T11:12:01;100151.59;;;11.64;94.01
44457;BME280;30159;49.316;8.558;2022-11-14T11:14:28;100142.81;;;11.72;94.57
44457;BME280;30159;49.316;8.558;2022-11-14T11:17:21;100148.97;;;11.59;93.88
44457;BME280;30159;49.316;8.558;2022-11-14T11:19:50;100145.47;;;11.58;94.61
44457;BME280;30159;49.316;8.558;2022-11-14T11:22:28;100146.91;;;11.51;95.61
44457;BME280;30159;49.316;8.558;2022-11-14T11:24:55;100149.75;;;11.59;95.58
44457;BME280;30159;49.316;8.558;2022-11-14T11:27:23;100144.66;;;11.58;94.52
44457;BME280;30159;49.316;8.558;2022-11-14T11:30:03;100141.50;;;11.51;95.79
44457;BME280;30159;49.316;8.558;2022-11-14T11:32:30;100140.19;;;11.48;96.32
44457;BME280;30159;49.316;8.558;2022-11-14T11:35:00;100140.91;;;11.35;97.12
44457;BME280;30159;49.316;8.558;2022-11-14T11:37:29;100137.22;;;11.31;98.50
44457;BME280;30159;49.316;8.558;2022-11-14T11:40:00;100139.38;;;11.29;100.00
44457;BME280;30159;49.316;8.558;2022-11-14T11:42:32;100139.31;;;11.34;99.75
44457;BME280;30159;49.316;8.558;2022-11-14T11:45:04;100099.59;;;11.15;100.00
44457;BME280;30159;49.316;8.558;2022-11-14T11:47:33;100135.38;;;11.45;99.79
44457;BME280;30159;49.316;8.558;2022-11-14T11:50:03;100125.81;;;11.34;100.00
44457;BME280;30159;49.316;8.558;2022-11-14T11:52:33;100126.91;;;11.33;100.00
44457;BME280;30159;49.316;8.558;2022-11-14T11:55:11;100109.25;;;11.22;100.00
44457;BME280;30159;49.316;8.558;2022-11-14T11:57:42;100122.38;;;11.28;100.00
44457;BME280;30159;49.316;8.558;2022-11-14T12:00:14;100119.97;;;11.27;100.00
44457;BME280;30159;49.316;8.558;2022-11-14T12:02:44;100089.50;;;11.02;100.00
44457;BME280;30159;49.316;8.558;2022-11-14T12:05:16;100130.31;;;11.20;100.00
44457;BME280;30159;49.316;8.558;2022-11-14T12:07:49;100122.84;;;11.11;100.00
44457;BME280;30159;49.316;8.558;2022-11-14T12:10:21;100126.94;;;11.09;100.00
44457;BME280;30159;49.316;8.558;2022-11-14T12:16:10;100092.25;;;10.78;100.00
44457;BME280;30159;49.316;8.558;2022-11-14T12:19:03;100127.19;;;10.88;100.00
44457;BME280;30159;49.316;8.558;2022-11-14T12:21:48;100128.63;;;10.81;100.00
44457;BME280;30159;49.316;8.558;2022-11-14T12:24:32;100125.47;;;10.73;100.00
44457;BME280;30159;49.316;8.558;2022-11-14T12:27:19;100120.06;;;10.73;100.00
44457;BME280;30159;49.316;8.558;2022-11-14T12:29:54;100132.53;;;10.69;100.00
44457;BME280;30159;49.316;8.558;2022-11-14T12:32:30;100135.34;;;10.59;100.00
44457;BME280;30159;49.316;8.558;2022-11-14T12:34:58;100128.91;;;10.55;100.00
44457;BME280;30159;49.316;8.558;2022-11-14T12:37:32;100125.63;;;10.58;100.00
44457;BME280;30159;49.316;8.558;2022-11-14T12:40:02;100122.44;;;10.56;100.00
44457;BME280;30159;49.316;8.558;2022-11-14T12:42:30;100124.56;;;10.59;100.00
44457;BME280;30159;49.316;8.558;2022-11-14T12:44:57;100141.78;;;10.63;100.00
44457;BME280;30159;49.316;8.558;2022-11-14T12:47:24;100119.69;;;10.61;100.00
44457;BME280;30159;49.316;8.558;2022-11-14T12:50:03;100118.03;;;10.65;100.00
44457;BME280;30159;49.316;8.558;2022-11-14T12:52:47;100132.31;;;10.66;100.00
44457;BME280;30159;49.316;8.558;2022-11-14T12:58:50;100127.78;;;10.61;100.00
44457;BME280;30159;49.316;8.558;2022-11-14T13:01:40;100122.91;;;10.63;100.00
44457;BME280;30159;49.316;8.558;2022-11-14T13:04:20;100128.09;;;10.79;100.00